Terminal Aerodrome Forecast
Issued by NWS

Home | Current Version | Previous Version | Text Only | Print | Product List | Glossary On
Versions: 1 2 3 4 5 6 7 8 9 10 11 12
000
FTUS46 KSEW 152300
TAFBLI
TAF
KBLI 152320Z 1600/1624 VRB04KT P6SM FEW200
     FM160300 18005KT P6SM SCT100 BKN200
      TEMPO 1612/1616 3SM BR
     FM161800 17006KT P6SM SCT200=

USA.gov is the U.S. government's official web portal to all federal, state and local government web resources and services.